createdAt,value
2022-12-01T00:03:06.309Z,4.35
2022-12-01T00:06:58.839Z,4.34
2022-12-01T00:10:51.417Z,4.46
2022-12-01T00:14:44.381Z,4.31
2022-12-01T00:18:37.403Z,4.25
2022-12-01T00:22:30.018Z,4.35
2022-12-01T00:26:23.721Z,4.48
2022-12-01T00:30:18.087Z,4.49
2022-12-01T00:34:22.918Z,4.38
2022-12-01T00:38:16.078Z,4.31
2022-12-01T00:42:13.276Z,4.10
2022-12-01T00:46:06.332Z,4.14
2022-12-01T00:49:59.714Z,4.19
2022-12-01T00:53:52.264Z,4.18
2022-12-01T00:57:44.902Z,4.00
2022-12-01T01:01:38.004Z,3.97
2022-12-01T01:05:30.705Z,3.91
2022-12-01T01:09:23.399Z,4.11
2022-12-01T01:13:16.956Z,4.19
2022-12-01T01:17:09.608Z,4.18
2022-12-01T01:21:08.226Z,4.32
2022-12-01T01:25:00.558Z,4.15
2022-12-01T01:28:56.201Z,4.21
2022-12-01T01:32:48.773Z,4.17
2022-12-01T01:36:41.246Z,3.95
2022-12-01T01:40:33.953Z,3.93
2022-12-01T01:44:50.314Z,4.05
2022-12-01T01:48:50.413Z,4.11
2022-12-01T01:52:52.023Z,4.05
2022-12-01T01:56:46.229Z,4.14
2022-12-01T02:00:42.966Z,4.00
2022-12-01T02:04:37.952Z,3.91
2022-12-01T02:08:31.229Z,3.76
2022-12-01T02:12:51.757Z,3.77
2022-12-01T02:16:57.484Z,3.53
2022-12-01T02:21:27.363Z,3.34
2022-12-01T02:25:40.616Z,3.43
2022-12-01T02:29:51.432Z,3.52
2022-12-01T02:33:53.128Z,3.38
2022-12-01T02:38:09.944Z,3.36
2022-12-01T02:42:40.131Z,3.34
2022-12-01T02:46:42.161Z,3.31
2022-12-01T02:50:36.803Z,3.56
2022-12-01T02:54:31.436Z,3.73
2022-12-01T02:58:24.021Z,3.74
2022-12-01T03:02:25.406Z,3.70
2022-12-01T03:06:46.665Z,3.56
2022-12-01T03:10:54.583Z,3.46
2022-12-01T03:15:15.453Z,3.42
2022-12-01T03:19:19.851Z,3.19
2022-12-01T03:23:20.659Z,3.09
2022-12-01T03:27:18.223Z,3.18
2022-12-01T03:31:13.297Z,3.00
2022-12-01T03:35:14.722Z,3.07
2022-12-01T03:39:15.293Z,2.90
2022-12-01T03:43:12.191Z,2.93
2022-12-01T03:47:09.694Z,2.87
2022-12-01T03:51:02.358Z,2.70
2022-12-01T03:55:20.420Z,2.64
2022-12-01T03:59:14.622Z,2.66
2022-12-01T04:03:07.799Z,2.56
2022-12-01T04:07:00.508Z,2.52
2022-12-01T04:10:53.056Z,2.32
2022-12-01T04:14:45.414Z,2.67
2022-12-01T04:18:38.006Z,2.63
2022-12-01T04:22:30.467Z,2.57
2022-12-01T04:26:23.129Z,2.39
2022-12-01T04:30:15.605Z,2.59
2022-12-01T04:34:08.483Z,2.42
2022-12-01T04:38:01.080Z,2.61
2022-12-01T04:41:53.790Z,2.63
2022-12-01T04:45:46.495Z,2.64
2022-12-01T04:49:39.306Z,2.64
2022-12-01T04:53:32.140Z,2.52
2022-12-01T04:57:24.696Z,2.61
2022-12-01T05:01:18.902Z,2.61
2022-12-01T05:05:11.684Z,2.77
2022-12-01T05:09:04.321Z,2.77
2022-12-01T05:12:58.483Z,2.98
2022-12-01T05:16:51.214Z,2.66
2022-12-01T05:20:58.677Z,2.61
2022-12-01T05:24:51.280Z,2.46
2022-12-01T05:28:43.855Z,2.24
2022-12-01T05:32:36.760Z,1.97
2022-12-01T05:36:29.607Z,1.81
2022-12-01T05:40:22.113Z,1.91
2022-12-01T05:44:14.764Z,2.00
2022-12-01T05:48:07.461Z,2.08
2022-12-01T05:52:00.030Z,2.05
2022-12-01T05:55:54.442Z,1.98
2022-12-01T05:59:50.373Z,1.94
2022-12-01T06:03:43.141Z,1.80
2022-12-01T06:07:36.107Z,1.84
2022-12-01T06:11:28.604Z,1.76
2022-12-01T06:15:21.204Z,1.50
2022-12-01T06:19:13.553Z,1.50
2022-12-01T06:23:06.062Z,1.36
2022-12-01T06:26:58.781Z,1.19
2022-12-01T06:30:51.375Z,1.36
2022-12-01T06:34:44.037Z,1.47
2022-12-01T06:38:37.346Z,1.80
2022-12-01T06:42:32.427Z,1.55
2022-12-01T06:46:25.064Z,1.56
2022-12-01T06:50:17.896Z,1.60
2022-12-01T06:54:12.156Z,1.76
2022-12-01T06:58:05.790Z,1.77
2022-12-01T07:01:59.043Z,1.63
2022-12-01T07:05:58.748Z,1.73
2022-12-01T07:09:51.795Z,1.85
2022-12-01T07:13:45.701Z,2.00
2022-12-01T07:17:38.282Z,2.14
2022-12-01T07:21:30.827Z,2.28
2022-12-01T07:25:23.536Z,2.22
2022-12-01T07:29:16.256Z,2.38
2022-12-01T07:33:08.688Z,2.25
2022-12-01T07:37:01.254Z,2.33
2022-12-01T07:40:53.802Z,2.54
2022-12-01T07:44:46.248Z,2.48
2022-12-01T07:48:40.805Z,2.41
2022-12-01T07:52:33.393Z,2.41
2022-12-01T07:56:26.070Z,2.32
2022-12-01T08:00:18.911Z,2.41
2022-12-01T08:04:11.357Z,2.46
2022-12-01T08:08:04.137Z,2.64
2022-12-01T08:11:56.798Z,2.69
2022-12-01T08:15:49.164Z,2.83
2022-12-01T08:19:42.091Z,3.01
2022-12-01T08:23:35.130Z,3.08
2022-12-01T08:27:27.746Z,3.18
2022-12-01T08:31:24.563Z,3.19
2022-12-01T08:35:17.128Z,3.43
2022-12-01T08:39:10.077Z,3.53
2022-12-01T08:43:02.723Z,3.69
2022-12-01T08:46:55.712Z,3.81
2022-12-01T08:50:48.365Z,3.83
2022-12-01T08:54:41.094Z,3.81
2022-12-01T08:58:34.086Z,3.74
2022-12-01T09:02:26.855Z,3.70
2022-12-01T09:06:20.860Z,3.76
2022-12-01T09:10:13.607Z,3.77
2022-12-01T09:14:06.023Z,3.86
2022-12-01T09:17:58.610Z,3.89
2022-12-01T09:21:51.266Z,3.98
2022-12-01T09:25:43.723Z,4.11
2022-12-01T09:29:36.371Z,4.27
2022-12-01T09:33:29.113Z,4.34
2022-12-01T09:37:21.582Z,4.38
2022-12-01T09:41:25.098Z,4.46
2022-12-01T09:45:28.274Z,4.53
2022-12-01T09:49:25.436Z,4.50
2022-12-01T09:53:22.458Z,4.57
2022-12-01T09:57:24.607Z,4.73
2022-12-01T10:01:26.923Z,4.83
2022-12-01T10:05:27.344Z,4.80
2022-12-01T10:09:35.184Z,4.81
2022-12-01T10:13:29.074Z,4.91
2022-12-01T10:17:21.593Z,4.94
2022-12-01T10:21:19.928Z,5.00
2022-12-01T10:25:21.621Z,5.07
2022-12-01T10:29:35.818Z,5.08
2022-12-01T10:33:40.338Z,5.15
2022-12-01T10:37:33.135Z,5.21
2022-12-01T10:41:29.856Z,5.22
2022-12-01T10:45:44.492Z,5.34
2022-12-01T10:49:39.296Z,5.32
2022-12-01T10:53:34.076Z,5.41
2022-12-01T10:57:29.579Z,5.45
2022-12-01T11:01:25.136Z,5.49
2022-12-01T11:05:33.013Z,5.59
2022-12-01T11:09:28.635Z,5.55
2022-12-01T11:13:30.321Z,5.67
2022-12-01T11:17:22.857Z,5.67
2022-12-01T11:21:26.710Z,5.71
2022-12-01T11:25:22.605Z,5.81
2022-12-01T11:29:36.266Z,5.86
2022-12-01T11:33:31.084Z,5.94
2022-12-01T11:37:29.475Z,6.00
2022-12-01T11:41:28.411Z,6.15
2022-12-01T11:45:21.068Z,6.17
2022-12-01T11:49:19.805Z,6.15
2022-12-01T11:53:30.280Z,6.18
2022-12-01T11:57:37.925Z,6.21
2022-12-01T12:01:57.944Z,6.20
2022-12-01T12:06:39.499Z,6.20
2022-12-01T12:10:35.892Z,6.15
2022-12-01T12:14:54.735Z,6.11
2022-12-01T12:18:50.385Z,6.08
2022-12-01T12:23:07.498Z,6.14
2022-12-01T12:27:22.594Z,6.31
2022-12-01T12:31:44.427Z,6.35
2022-12-01T12:35:55.414Z,6.44
2022-12-01T12:40:06.134Z,6.52
2022-12-01T12:44:24.452Z,6.42
2022-12-01T12:48:57.277Z,6.49
2022-12-01T12:53:01.528Z,6.42
2022-12-01T12:57:36.350Z,6.39
2022-12-01T13:01:36.629Z,6.41
2022-12-01T13:05:31.225Z,6.45
2022-12-01T13:09:29.926Z,6.48
2022-12-01T13:13:44.616Z,6.45
2022-12-01T13:17:40.905Z,6.52
2022-12-01T13:21:40.860Z,6.52
2022-12-01T13:25:38.814Z,6.57
2022-12-01T13:29:40.975Z,6.52
2022-12-01T13:33:37.957Z,6.62
2022-12-01T13:37:34.579Z,6.61
2022-12-01T13:41:32.369Z,6.52
2022-12-01T13:45:29.155Z,6.41
2022-12-01T13:49:42.667Z,6.36
2022-12-01T13:53:37.196Z,6.28
2022-12-01T13:57:34.948Z,6.22
2022-12-01T14:01:29.016Z,6.17
2022-12-01T14:05:39.872Z,6.11
2022-12-01T14:09:37.465Z,6.04
2022-12-01T14:13:31.634Z,5.98
2022-12-01T14:17:33.737Z,5.90
2022-12-01T14:21:47.591Z,5.77
2022-12-01T14:25:41.151Z,5.69
2022-12-01T14:29:38.636Z,5.65
2022-12-01T14:33:51.287Z,5.66
2022-12-01T14:37:47.069Z,5.56
2022-12-01T14:41:52.152Z,5.52
2022-12-01T14:45:55.781Z,5.42
2022-12-01T14:49:55.146Z,5.31
2022-12-01T14:53:50.379Z,5.14
2022-12-01T14:57:59.852Z,5.08
2022-12-01T15:01:56.050Z,5.03
2022-12-01T15:05:48.842Z,4.97
2022-12-01T15:09:59.109Z,4.93
2022-12-01T15:13:54.645Z,4.93
2022-12-01T15:17:47.679Z,4.81
2022-12-01T15:21:40.467Z,4.73
2022-12-01T15:25:36.486Z,4.67
2022-12-01T15:29:35.507Z,4.56
2022-12-01T15:33:37.178Z,4.45
2022-12-01T15:37:39.348Z,4.41
2022-12-01T15:41:32.538Z,4.31
2022-12-01T15:45:25.375Z,4.25
2022-12-01T15:49:30.211Z,4.24
2022-12-01T15:53:27.437Z,4.07
2022-12-01T15:57:21.912Z,4.08
2022-12-01T16:01:21.490Z,4.14
2022-12-01T16:05:14.137Z,4.08
2022-12-01T16:09:33.701Z,4.04
2022-12-01T16:13:35.485Z,4.17
2022-12-01T16:17:40.868Z,4.21
2022-12-01T16:21:42.758Z,4.12
2022-12-01T16:25:44.343Z,4.05
2022-12-01T16:29:51.443Z,4.01
2022-12-01T16:33:44.109Z,4.05
2022-12-01T16:37:37.014Z,4.05
2022-12-01T16:41:38.335Z,4.04
2022-12-01T16:45:31.208Z,3.98
2022-12-01T16:49:23.982Z,3.89
2022-12-01T16:53:17.501Z,3.98
2022-12-01T16:57:10.423Z,3.84
2022-12-01T17:01:05.500Z,3.77
2022-12-01T17:04:58.277Z,3.73
2022-12-01T17:08:51.371Z,3.80
2022-12-01T17:12:44.277Z,3.80
2022-12-01T17:16:37.434Z,3.77
2022-12-01T17:20:30.245Z,3.59
2022-12-01T17:24:23.171Z,3.64
2022-12-01T17:28:16.206Z,3.52
2022-12-01T17:32:11.661Z,3.46
2022-12-01T17:36:08.297Z,3.45
2022-12-01T17:40:01.354Z,3.51
2022-12-01T17:43:54.464Z,3.55
2022-12-01T17:47:47.757Z,3.53
2022-12-01T17:51:41.385Z,3.49
2022-12-01T17:55:33.970Z,3.53
2022-12-01T17:59:26.609Z,3.51
2022-12-01T18:03:20.375Z,3.35
2022-12-01T18:07:13.817Z,3.24
2022-12-01T18:11:10.607Z,3.29
2022-12-01T18:15:03.799Z,3.28
2022-12-01T18:19:00.250Z,3.26
2022-12-01T18:22:53.055Z,3.26
2022-12-01T18:26:47.387Z,3.31
2022-12-01T18:30:40.801Z,3.25
2022-12-01T18:34:34.615Z,3.17
2022-12-01T18:38:28.334Z,3.12
2022-12-01T18:42:21.388Z,3.12
2022-12-01T18:46:16.235Z,3.08
2022-12-01T18:50:09.492Z,3.01
2022-12-01T18:54:04.710Z,3.00
2022-12-01T18:57:57.838Z,2.98
2022-12-01T19:01:52.295Z,2.88
2022-12-01T19:05:46.469Z,2.97
2022-12-01T19:09:39.815Z,3.26
2022-12-01T19:13:34.559Z,3.11
2022-12-01T19:17:27.909Z,2.97
2022-12-01T19:21:21.084Z,2.86
2022-12-01T19:25:14.490Z,2.70
2022-12-01T19:29:08.032Z,2.64
2022-12-01T19:33:01.057Z,2.60
2022-12-01T19:36:54.486Z,2.57
2022-12-01T19:40:47.600Z,2.54
2022-12-01T19:44:40.608Z,2.56
2022-12-01T19:48:33.528Z,2.59
2022-12-01T19:52:26.807Z,2.66
2022-12-01T19:56:20.564Z,2.66
2022-12-01T20:00:13.966Z,2.70
2022-12-01T20:04:08.347Z,2.69
2022-12-01T20:08:03.239Z,2.64
2022-12-01T20:11:56.528Z,2.73
2022-12-01T20:15:49.573Z,2.73
2022-12-01T20:19:42.985Z,2.66
2022-12-01T20:23:36.535Z,2.64
2022-12-01T20:27:30.348Z,2.64
2022-12-01T20:31:26.659Z,2.77
2022-12-01T20:35:19.677Z,2.87
2022-12-01T20:39:13.329Z,2.84
2022-12-01T20:43:05.790Z,2.76
2022-12-01T20:46:58.936Z,3.03
2022-12-01T20:50:52.262Z,2.86
2022-12-01T20:54:45.337Z,2.79
2022-12-01T20:58:39.886Z,2.83
2022-12-01T21:02:32.452Z,2.64
2022-12-01T21:06:24.980Z,2.73
2022-12-01T21:10:20.172Z,2.69
2022-12-01T21:14:23.840Z,2.73
2022-12-01T21:18:23.258Z,2.76
2022-12-01T21:22:16.363Z,2.79
2022-12-01T21:26:15.790Z,3.05
2022-12-01T21:30:17.304Z,3.15
2022-12-01T21:34:27.291Z,2.75
2022-12-01T21:38:22.126Z,2.91
2022-12-01T21:42:21.728Z,2.90
2022-12-01T21:46:16.362Z,2.76
2022-12-01T21:50:16.659Z,2.66
2022-12-01T21:54:19.047Z,2.50
2022-12-01T21:58:24.937Z,2.28
2022-12-01T22:02:42.332Z,2.24
2022-12-01T22:06:41.362Z,2.21
2022-12-01T22:10:57.866Z,2.11
2022-12-01T22:14:50.937Z,2.05
2022-12-01T22:18:50.928Z,1.95
2022-12-01T22:22:43.957Z,1.93
2022-12-01T22:26:39.044Z,1.80
2022-12-01T22:30:31.918Z,1.81
2022-12-01T22:34:24.483Z,1.70
2022-12-01T22:38:37.765Z,1.62
2022-12-01T22:42:33.169Z,1.70
2022-12-01T22:46:34.865Z,1.52
2022-12-01T22:50:32.859Z,1.43
2022-12-01T22:54:28.394Z,1.87
2022-12-01T22:58:30.489Z,1.73
2022-12-01T23:02:35.003Z,1.90
2022-12-01T23:06:55.596Z,1.83
2022-12-01T23:10:48.304Z,1.97
2022-12-01T23:14:48.245Z,2.24
2022-12-01T23:18:41.034Z,2.31
2022-12-01T23:22:33.415Z,2.38
2022-12-01T23:26:26.029Z,2.50
2022-12-01T23:30:20.479Z,2.35
2022-12-01T23:34:15.508Z,2.33
2022-12-01T23:38:15.820Z,2.46
2022-12-01T23:42:09.926Z,2.53
2022-12-01T23:46:07.790Z,2.41
2022-12-01T23:50:03.446Z,2.56
2022-12-01T23:53:57.807Z,2.48
2022-12-01T23:57:50.536Z,2.26
